KGWO/GWO METAR and TAF weather

Enter ICAO airport designator
Station Type Date Time Source
KGWO METAR 2020/04/02 02:53 UTC NOAA

KGWO 020253Z AUTO 00000KT 10SM CLR 14/11 A3003 RMK AO2 SLP169 T01390111 53014


Station Type Date Time Source
KGWO Decoded METAR 2020/04/02 02:53 UTC NOAA

GREENWOOD-LEFLORE AIRPORT, MS, United States (KGWO) 33-30N 090-05W 44M
Apr 01, 2020 - 10:53 PM EDT / 2020.04.02 0253 UTC
Wind: Calm:0
Visibility: 10 mile(s):0
Sky conditions: clear
Temperature: 57.0 F (13.9 C)
Dew Point: 52.0 F (11.1 C)
Relative Humidity: 83%
Pressure (altimeter): 30.03 in. Hg (1016 hPa)
Pressure tendency: 0.04 inches (1.4 hPa) higher than three hours ago
ob: KGWO 020253Z AUTO 00000KT 10SM CLR 14/11 A3003 RMK AO2 SLP169 T01390111 53014
cycle: 3

Station Type Date Time Source
KGWO TAF 2020/04/01 18:22 UTC NOAA

TAF KGWO 011720Z 0118/0218 01005KT P6SM SKC

Example: see airport list